sensor_id;sensor_type;location;lat;lon;timestamp;P1;durP1;ratioP1;P2;durP2;ratioP2
8317;SDS011;4196;48.926;8.964;2024-03-23T00:53:53;16.50;;;8.77;;
8317;SDS011;4196;48.926;8.964;2024-03-23T00:56:38;18.53;;;10.07;;
8317;SDS011;4196;48.926;8.964;2024-03-23T00:59:24;16.93;;;7.20;;
8317;SDS011;4196;48.926;8.964;2024-03-23T01:02:12;15.10;;;7.90;;
8317;SDS011;4196;48.926;8.964;2024-03-23T01:04:57;13.93;;;7.60;;
8317;SDS011;4196;48.926;8.964;2024-03-23T01:07:43;11.93;;;6.33;;
8317;SDS011;4196;48.926;8.964;2024-03-23T01:10:28;9.87;;;6.40;;
8317;SDS011;4196;48.926;8.964;2024-03-23T01:13:14;13.73;;;6.97;;
8317;SDS011;4196;48.926;8.964;2024-03-23T01:15:59;12.13;;;6.53;;
8317;SDS011;4196;48.926;8.964;2024-03-23T01:18:44;12.77;;;7.97;;
8317;SDS011;4196;48.926;8.964;2024-03-23T01:21:30;13.40;;;6.77;;
8317;SDS011;4196;48.926;8.964;2024-03-23T01:24:15;13.83;;;7.27;;
8317;SDS011;4196;48.926;8.964;2024-03-23T01:27:00;15.70;;;8.80;;
8317;SDS011;4196;48.926;8.964;2024-03-23T01:29:46;12.67;;;7.33;;
8317;SDS011;4196;48.926;8.964;2024-03-23T01:32:31;12.80;;;6.77;;
8317;SDS011;4196;48.926;8.964;2024-03-23T01:35:17;17.17;;;7.13;;
8317;SDS011;4196;48.926;8.964;2024-03-23T01:38:02;13.50;;;7.93;;
8317;SDS011;4196;48.926;8.964;2024-03-23T01:40:47;11.00;;;6.67;;
8317;SDS011;4196;48.926;8.964;2024-03-23T01:43:33;11.30;;;6.30;;
8317;SDS011;4196;48.926;8.964;2024-03-23T01:46:18;8.50;;;5.30;;
8317;SDS011;4196;48.926;8.964;2024-03-23T01:49:07;12.53;;;6.07;;
8317;SDS011;4196;48.926;8.964;2024-03-23T01:51:53;6.90;;;5.10;;
8317;SDS011;4196;48.926;8.964;2024-03-23T01:54:39;9.03;;;5.93;;
8317;SDS011;4196;48.926;8.964;2024-03-23T01:57:25;9.20;;;5.60;;
8317;SDS011;4196;48.926;8.964;2024-03-23T02:00:11;11.30;;;6.23;;
8317;SDS011;4196;48.926;8.964;2024-03-23T02:02:57;7.27;;;5.53;;
8317;SDS011;4196;48.926;8.964;2024-03-23T02:05:42;12.07;;;5.17;;
8317;SDS011;4196;48.926;8.964;2024-03-23T02:08:27;9.83;;;5.53;;
8317;SDS011;4196;48.926;8.964;2024-03-23T02:11:15;8.87;;;5.70;;
8317;SDS011;4196;48.926;8.964;2024-03-23T02:14:00;9.90;;;5.70;;
8317;SDS011;4196;48.926;8.964;2024-03-23T02:16:46;8.27;;;5.63;;
8317;SDS011;4196;48.926;8.964;2024-03-23T02:19:32;10.33;;;7.13;;
8317;SDS011;4196;48.926;8.964;2024-03-23T02:22:17;9.87;;;6.50;;
8317;SDS011;4196;48.926;8.964;2024-03-23T02:25:04;9.03;;;6.17;;
8317;SDS011;4196;48.926;8.964;2024-03-23T02:27:49;9.07;;;5.70;;
8317;SDS011;4196;48.926;8.964;2024-03-23T02:30:35;8.77;;;5.80;;
8317;SDS011;4196;48.926;8.964;2024-03-23T02:33:20;9.70;;;5.80;;
8317;SDS011;4196;48.926;8.964;2024-03-23T02:36:05;13.63;;;6.57;;
8317;SDS011;4196;48.926;8.964;2024-03-23T02:38:51;11.10;;;6.20;;
8317;SDS011;4196;48.926;8.964;2024-03-23T02:41:36;10.37;;;6.37;;
8317;SDS011;4196;48.926;8.964;2024-03-23T02:44:22;11.00;;;7.03;;
8317;SDS011;4196;48.926;8.964;2024-03-23T02:47:07;12.40;;;6.73;;
8317;SDS011;4196;48.926;8.964;2024-03-23T02:49:53;11.07;;;7.17;;
8317;SDS011;4196;48.926;8.964;2024-03-23T02:52:40;10.57;;;6.60;;
8317;SDS011;4196;48.926;8.964;2024-03-23T02:55:25;10.37;;;6.33;;
8317;SDS011;4196;48.926;8.964;2024-03-23T02:58:10;8.70;;;6.40;;
8317;SDS011;4196;48.926;8.964;2024-03-23T03:00:56;8.60;;;5.33;;
8317;SDS011;4196;48.926;8.964;2024-03-23T03:03:41;9.33;;;6.27;;
8317;SDS011;4196;48.926;8.964;2024-03-23T03:06:27;10.27;;;6.47;;
8317;SDS011;4196;48.926;8.964;2024-03-23T03:09:13;10.17;;;5.53;;
8317;SDS011;4196;48.926;8.964;2024-03-23T03:11:58;8.77;;;5.70;;
8317;SDS011;4196;48.926;8.964;2024-03-23T03:14:43;8.67;;;5.73;;
8317;SDS011;4196;48.926;8.964;2024-03-23T03:17:29;9.23;;;5.50;;
8317;SDS011;4196;48.926;8.964;2024-03-23T03:20:14;11.83;;;6.17;;
8317;SDS011;4196;48.926;8.964;2024-03-23T03:23:00;7.67;;;5.50;;
8317;SDS011;4196;48.926;8.964;2024-03-23T03:25:46;7.80;;;5.27;;
8317;SDS011;4196;48.926;8.964;2024-03-23T03:28:32;5.83;;;4.80;;
8317;SDS011;4196;48.926;8.964;2024-03-23T03:31:18;13.03;;;7.03;;
8317;SDS011;4196;48.926;8.964;2024-03-23T03:34:03;11.43;;;6.47;;
8317;SDS011;4196;48.926;8.964;2024-03-23T03:36:49;10.50;;;4.97;;
8317;SDS011;4196;48.926;8.964;2024-03-23T03:39:34;7.37;;;5.93;;
8317;SDS011;4196;48.926;8.964;2024-03-23T03:42:19;9.43;;;5.87;;
8317;SDS011;4196;48.926;8.964;2024-03-23T03:45:05;8.20;;;4.97;;
8317;SDS011;4196;48.926;8.964;2024-03-23T03:47:51;7.20;;;5.23;;
8317;SDS011;4196;48.926;8.964;2024-03-23T03:50:36;10.97;;;5.30;;
8317;SDS011;4196;48.926;8.964;2024-03-23T03:53:21;7.13;;;4.93;;
8317;SDS011;4196;48.926;8.964;2024-03-23T03:56:06;9.70;;;5.77;;
8317;SDS011;4196;48.926;8.964;2024-03-23T03:58:52;6.60;;;4.80;;
8317;SDS011;4196;48.926;8.964;2024-03-23T04:01:37;7.97;;;5.50;;
8317;SDS011;4196;48.926;8.964;2024-03-23T04:04:22;8.43;;;5.10;;
8317;SDS011;4196;48.926;8.964;2024-03-23T04:07:07;10.97;;;5.93;;
8317;SDS011;4196;48.926;8.964;2024-03-23T04:09:53;8.90;;;4.83;;
8317;SDS011;4196;48.926;8.964;2024-03-23T04:12:38;7.97;;;4.87;;
8317;SDS011;4196;48.926;8.964;2024-03-23T04:15:23;9.73;;;5.17;;
8317;SDS011;4196;48.926;8.964;2024-03-23T04:18:09;10.90;;;6.50;;
8317;SDS011;4196;48.926;8.964;2024-03-23T04:20:54;11.50;;;7.23;;
8317;SDS011;4196;48.926;8.964;2024-03-23T04:23:39;34.60;;;8.40;;
8317;SDS011;4196;48.926;8.964;2024-03-23T04:26:25;14.30;;;7.70;;
8317;SDS011;4196;48.926;8.964;2024-03-23T04:29:10;16.17;;;7.97;;
8317;SDS011;4196;48.926;8.964;2024-03-23T04:31:56;10.83;;;6.60;;
8317;SDS011;4196;48.926;8.964;2024-03-23T04:34:41;10.83;;;6.80;;
8317;SDS011;4196;48.926;8.964;2024-03-23T04:37:27;11.90;;;6.97;;
8317;SDS011;4196;48.926;8.964;2024-03-23T04:40:12;12.00;;;6.33;;
8317;SDS011;4196;48.926;8.964;2024-03-23T04:42:57;11.93;;;6.23;;
8317;SDS011;4196;48.926;8.964;2024-03-23T04:45:42;10.33;;;5.77;;
8317;SDS011;4196;48.926;8.964;2024-03-23T04:48:27;12.07;;;5.83;;
8317;SDS011;4196;48.926;8.964;2024-03-23T04:51:25;11.77;;;6.43;;
8317;SDS011;4196;48.926;8.964;2024-03-23T04:54:14;13.47;;;6.83;;
8317;SDS011;4196;48.926;8.964;2024-03-23T04:57:00;11.23;;;6.50;;
8317;SDS011;4196;48.926;8.964;2024-03-23T04:59:45;11.33;;;6.50;;
8317;SDS011;4196;48.926;8.964;2024-03-23T05:02:32;13.57;;;7.23;;
8317;SDS011;4196;48.926;8.964;2024-03-23T05:05:19;12.97;;;6.30;;
8317;SDS011;4196;48.926;8.964;2024-03-23T05:08:05;14.70;;;7.87;;
8317;SDS011;4196;48.926;8.964;2024-03-23T05:10:51;15.83;;;7.10;;
8317;SDS011;4196;48.926;8.964;2024-03-23T05:13:36;11.53;;;6.23;;
8317;SDS011;4196;48.926;8.964;2024-03-23T05:16:21;10.67;;;7.37;;
8317;SDS011;4196;48.926;8.964;2024-03-23T05:19:06;9.07;;;5.43;;
8317;SDS011;4196;48.926;8.964;2024-03-23T05:21:52;10.30;;;5.30;;
8317;SDS011;4196;48.926;8.964;2024-03-23T05:24:38;11.87;;;5.93;;
8317;SDS011;4196;48.926;8.964;2024-03-23T05:27:24;11.13;;;5.63;;
8317;SDS011;4196;48.926;8.964;2024-03-23T05:30:10;11.33;;;5.70;;
8317;SDS011;4196;48.926;8.964;2024-03-23T05:32:55;12.37;;;7.00;;
8317;SDS011;4196;48.926;8.964;2024-03-23T05:35:41;9.73;;;5.03;;
8317;SDS011;4196;48.926;8.964;2024-03-23T05:38:26;9.60;;;5.80;;
8317;SDS011;4196;48.926;8.964;2024-03-23T05:41:13;11.43;;;5.60;;
8317;SDS011;4196;48.926;8.964;2024-03-23T05:43:58;9.40;;;4.77;;
8317;SDS011;4196;48.926;8.964;2024-03-23T05:46:44;8.30;;;4.63;;
8317;SDS011;4196;48.926;8.964;2024-03-23T05:49:33;8.00;;;4.57;;
8317;SDS011;4196;48.926;8.964;2024-03-23T05:52:18;7.93;;;4.17;;
8317;SDS011;4196;48.926;8.964;2024-03-23T05:55:06;5.60;;;3.40;;
8317;SDS011;4196;48.926;8.964;2024-03-23T05:57:52;8.07;;;4.43;;
8317;SDS011;4196;48.926;8.964;2024-03-23T06:00:37;6.73;;;3.93;;
8317;SDS011;4196;48.926;8.964;2024-03-23T06:03:23;5.93;;;3.33;;
8317;SDS011;4196;48.926;8.964;2024-03-23T06:06:08;5.57;;;3.57;;
8317;SDS011;4196;48.926;8.964;2024-03-23T06:08:56;7.03;;;3.03;;
8317;SDS011;4196;48.926;8.964;2024-03-23T06:11:42;5.77;;;3.57;;
8317;SDS011;4196;48.926;8.964;2024-03-23T06:14:27;5.20;;;3.30;;
8317;SDS011;4196;48.926;8.964;2024-03-23T06:17:12;4.17;;;2.43;;
8317;SDS011;4196;48.926;8.964;2024-03-23T06:19:58;4.10;;;2.30;;
8317;SDS011;4196;48.926;8.964;2024-03-23T06:22:44;2.90;;;1.87;;
8317;SDS011;4196;48.926;8.964;2024-03-23T06:25:29;2.23;;;1.67;;
8317;SDS011;4196;48.926;8.964;2024-03-23T06:28:15;2.20;;;1.47;;
8317;SDS011;4196;48.926;8.964;2024-03-23T06:31:00;1.47;;;1.37;;
8317;SDS011;4196;48.926;8.964;2024-03-23T06:33:45;1.30;;;1.20;;
8317;SDS011;4196;48.926;8.964;2024-03-23T06:36:31;1.20;;;1.10;;
8317;SDS011;4196;48.926;8.964;2024-03-23T06:39:16;1.07;;;0.97;;
8317;SDS011;4196;48.926;8.964;2024-03-23T06:42:02;1.33;;;0.90;;
8317;SDS011;4196;48.926;8.964;2024-03-23T06:44:47;0.83;;;0.83;;
8317;SDS011;4196;48.926;8.964;2024-03-23T06:47:32;0.80;;;0.80;;
8317;SDS011;4196;48.926;8.964;2024-03-23T06:50:18;0.60;;;0.60;;
8317;SDS011;4196;48.926;8.964;2024-03-23T06:53:03;0.90;;;0.60;;
8317;SDS011;4196;48.926;8.964;2024-03-23T06:55:51;0.73;;;0.73;;
8317;SDS011;4196;48.926;8.964;2024-03-23T06:58:37;0.50;;;0.50;;
8317;SDS011;4196;48.926;8.964;2024-03-23T07:01:22;0.80;;;0.80;;
8317;SDS011;4196;48.926;8.964;2024-03-23T07:04:08;1.17;;;1.00;;
8317;SDS011;4196;48.926;8.964;2024-03-23T07:06:53;0.80;;;0.80;;
8317;SDS011;4196;48.926;8.964;2024-03-23T07:09:39;0.70;;;0.70;;
8317;SDS011;4196;48.926;8.964;2024-03-23T07:12:24;1.10;;;1.00;;
8317;SDS011;4196;48.926;8.964;2024-03-23T07:15:09;1.60;;;1.10;;
8317;SDS011;4196;48.926;8.964;2024-03-23T07:17:55;0.80;;;0.80;;
8317;SDS011;4196;48.926;8.964;2024-03-23T07:20:40;0.70;;;0.70;;
8317;SDS011;4196;48.926;8.964;2024-03-23T07:23:25;0.80;;;0.80;;
8317;SDS011;4196;48.926;8.964;2024-03-23T07:26:11;0.80;;;0.80;;
8317;SDS011;4196;48.926;8.964;2024-03-23T07:28:56;0.80;;;0.80;;
8317;SDS011;4196;48.926;8.964;2024-03-23T07:31:42;0.80;;;0.80;;
8317;SDS011;4196;48.926;8.964;2024-03-23T07:34:27;0.93;;;0.93;;
8317;SDS011;4196;48.926;8.964;2024-03-23T07:37:13;0.90;;;0.90;;
8317;SDS011;4196;48.926;8.964;2024-03-23T07:39:59;0.80;;;0.80;;
8317;SDS011;4196;48.926;8.964;2024-03-23T07:42:44;1.30;;;1.00;;
8317;SDS011;4196;48.926;8.964;2024-03-23T07:45:30;0.73;;;0.73;;
8317;SDS011;4196;48.926;8.964;2024-03-23T07:48:16;0.83;;;0.83;;
8317;SDS011;4196;48.926;8.964;2024-03-23T07:53:48;0.70;;;0.70;;
8317;SDS011;4196;48.926;8.964;2024-03-23T07:56:34;0.73;;;0.60;;
8317;SDS011;4196;48.926;8.964;2024-03-23T07:59:19;0.70;;;0.70;;
8317;SDS011;4196;48.926;8.964;2024-03-23T08:02:04;0.70;;;0.70;;
8317;SDS011;4196;48.926;8.964;2024-03-23T08:04:50;0.70;;;0.70;;
8317;SDS011;4196;48.926;8.964;2024-03-23T08:07:36;0.50;;;0.50;;
8317;SDS011;4196;48.926;8.964;2024-03-23T08:10:21;1.80;;;0.60;;
8317;SDS011;4196;48.926;8.964;2024-03-23T08:13:06;0.83;;;0.20;;
8317;SDS011;4196;48.926;8.964;2024-03-23T08:15:51;1.30;;;0.60;;
8317;SDS011;4196;48.926;8.964;2024-03-23T08:18:37;0.50;;;0.50;;
8317;SDS011;4196;48.926;8.964;2024-03-23T08:21:26;0.53;;;0.53;;
8317;SDS011;4196;48.926;8.964;2024-03-23T08:24:11;0.40;;;0.40;;
8317;SDS011;4196;48.926;8.964;2024-03-23T08:26:56;1.43;;;1.00;;
8317;SDS011;4196;48.926;8.964;2024-03-23T08:29:42;1.93;;;0.70;;
8317;SDS011;4196;48.926;8.964;2024-03-23T08:32:30;2.20;;;1.33;;
8317;SDS011;4196;48.926;8.964;2024-03-23T08:35:15;1.63;;;0.63;;
8317;SDS011;4196;48.926;8.964;2024-03-23T08:38:01;2.57;;;1.50;;
8317;SDS011;4196;48.926;8.964;2024-03-23T08:40:46;1.60;;;1.33;;
8317;SDS011;4196;48.926;8.964;2024-03-23T08:43:32;1.63;;;1.13;;
8317;SDS011;4196;48.926;8.964;2024-03-23T08:46:20;2.10;;;0.97;;
8317;SDS011;4196;48.926;8.964;2024-03-23T08:49:05;2.77;;;1.80;;
8317;SDS011;4196;48.926;8.964;2024-03-23T08:51:51;1.50;;;1.40;;
8317;SDS011;4196;48.926;8.964;2024-03-23T08:54:37;4.27;;;1.77;;
8317;SDS011;4196;48.926;8.964;2024-03-23T08:57:23;2.37;;;1.40;;
8317;SDS011;4196;48.926;8.964;2024-03-23T09:00:08;1.77;;;1.30;;
8317;SDS011;4196;48.926;8.964;2024-03-23T09:02:56;2.73;;;1.73;;
8317;SDS011;4196;48.926;8.964;2024-03-23T09:05:42;4.63;;;2.10;;
8317;SDS011;4196;48.926;8.964;2024-03-23T09:08:27;5.10;;;2.93;;
8317;SDS011;4196;48.926;8.964;2024-03-23T09:11:13;5.13;;;2.70;;
8317;SDS011;4196;48.926;8.964;2024-03-23T09:13:59;4.60;;;2.37;;
8317;SDS011;4196;48.926;8.964;2024-03-23T09:16:44;3.17;;;2.03;;
8317;SDS011;4196;48.926;8.964;2024-03-23T09:19:29;3.00;;;1.80;;
8317;SDS011;4196;48.926;8.964;2024-03-23T09:22:14;4.07;;;1.83;;
8317;SDS011;4196;48.926;8.964;2024-03-23T09:25:00;5.83;;;2.00;;
8317;SDS011;4196;48.926;8.964;2024-03-23T09:27:46;4.43;;;3.07;;
8317;SDS011;4196;48.926;8.964;2024-03-23T09:30:32;4.20;;;2.20;;
8317;SDS011;4196;48.926;8.964;2024-03-23T09:33:18;3.87;;;2.53;;
8317;SDS011;4196;48.926;8.964;2024-03-23T09:36:04;3.77;;;2.07;;
8317;SDS011;4196;48.926;8.964;2024-03-23T09:38:50;4.60;;;2.00;;
8317;SDS011;4196;48.926;8.964;2024-03-23T09:41:35;5.70;;;1.90;;
8317;SDS011;4196;48.926;8.964;2024-03-23T09:44:21;4.20;;;2.47;;
8317;SDS011;4196;48.926;8.964;2024-03-23T09:47:07;3.27;;;2.00;;
8317;SDS011;4196;48.926;8.964;2024-03-23T09:49:53;3.03;;;2.20;;
8317;SDS011;4196;48.926;8.964;2024-03-23T09:52:39;4.90;;;2.23;;
8317;SDS011;4196;48.926;8.964;2024-03-23T09:55:26;5.53;;;2.30;;
8317;SDS011;4196;48.926;8.964;2024-03-23T09:58:12;5.10;;;2.20;;
8317;SDS011;4196;48.926;8.964;2024-03-23T10:00:58;4.73;;;2.53;;
8317;SDS011;4196;48.926;8.964;2024-03-23T10:03:44;6.50;;;2.13;;
8317;SDS011;4196;48.926;8.964;2024-03-23T10:06:30;4.87;;;2.00;;
8317;SDS011;4196;48.926;8.964;2024-03-23T10:09:18;3.67;;;1.80;;
8317;SDS011;4196;48.926;8.964;2024-03-23T10:12:22;3.97;;;1.90;;
8317;SDS011;4196;48.926;8.964;2024-03-23T10:15:15;5.17;;;2.27;;
8317;SDS011;4196;48.926;8.964;2024-03-23T10:18:20;6.57;;;1.90;;
8317;SDS011;4196;48.926;8.964;2024-03-23T10:21:10;2.80;;;2.00;;
8317;SDS011;4196;48.926;8.964;2024-03-23T10:23:56;5.63;;;2.13;;
8317;SDS011;4196;48.926;8.964;2024-03-23T10:26:56;4.67;;;3.03;;
8317;SDS011;4196;48.926;8.964;2024-03-23T10:29:42;4.37;;;2.30;;
8317;SDS011;4196;48.926;8.964;2024-03-23T10:32:27;7.37;;;2.20;;
8317;SDS011;4196;48.926;8.964;2024-03-23T10:35:19;2.97;;;2.13;;
8317;SDS011;4196;48.926;8.964;2024-03-23T10:38:07;5.30;;;3.33;;
8317;SDS011;4196;48.926;8.964;2024-03-23T10:40:53;5.17;;;3.10;;
8317;SDS011;4196;48.926;8.964;2024-03-23T10:43:40;8.77;;;2.73;;
8317;SDS011;4196;48.926;8.964;2024-03-23T10:46:28;10.30;;;2.83;;
8317;SDS011;4196;48.926;8.964;2024-03-23T10:49:13;5.73;;;2.60;;
8317;SDS011;4196;48.926;8.964;2024-03-23T10:52:02;6.33;;;2.90;;
8317;SDS011;4196;48.926;8.964;2024-03-23T10:54:50;6.50;;;3.23;;
8317;SDS011;4196;48.926;8.964;2024-03-23T10:57:39;6.23;;;2.97;;
8317;SDS011;4196;48.926;8.964;2024-03-23T11:00:27;9.77;;;2.80;;
8317;SDS011;4196;48.926;8.964;2024-03-23T11:06:34;5.83;;;3.47;;
8317;SDS011;4196;48.926;8.964;2024-03-23T11:09:39;7.73;;;3.47;;
8317;SDS011;4196;48.926;8.964;2024-03-23T11:12:30;6.50;;;2.93;;
8317;SDS011;4196;48.926;8.964;2024-03-23T11:15:18;5.90;;;2.73;;
8317;SDS011;4196;48.926;8.964;2024-03-23T11:18:06;5.17;;;2.83;;
8317;SDS011;4196;48.926;8.964;2024-03-23T11:20:54;9.50;;;3.27;;
8317;SDS011;4196;48.926;8.964;2024-03-23T11:23:39;9.63;;;3.47;;
8317;SDS011;4196;48.926;8.964;2024-03-23T11:26:24;4.50;;;3.00;;
8317;SDS011;4196;48.926;8.964;2024-03-23T11:29:10;5.63;;;3.00;;
8317;SDS011;4196;48.926;8.964;2024-03-23T11:31:56;4.07;;;2.93;;
8317;SDS011;4196;48.926;8.964;2024-03-23T11:34:43;2.20;;;2.00;;
8317;SDS011;4196;48.926;8.964;2024-03-23T11:37:29;4.77;;;2.20;;
8317;SDS011;4196;48.926;8.964;2024-03-23T11:40:17;3.13;;;2.40;;
8317;SDS011;4196;48.926;8.964;2024-03-23T11:43:04;3.07;;;1.90;;
8317;SDS011;4196;48.926;8.964;2024-03-23T11:45:51;3.47;;;2.27;;
8317;SDS011;4196;48.926;8.964;2024-03-23T11:48:38;6.07;;;2.53;;
8317;SDS011;4196;48.926;8.964;2024-03-23T11:51:23;5.00;;;2.30;;
8317;SDS011;4196;48.926;8.964;2024-03-23T11:54:09;3.00;;;1.50;;
8317;SDS011;4196;48.926;8.964;2024-03-23T11:59:52;3.00;;;1.90;;
8317;SDS011;4196;48.926;8.964;2024-03-23T12:02:38;5.40;;;1.90;;
8317;SDS011;4196;48.926;8.964;2024-03-23T12:05:23;5.40;;;1.37;;
8317;SDS011;4196;48.926;8.964;2024-03-23T12:08:14;2.27;;;1.70;;
8317;SDS011;4196;48.926;8.964;2024-03-23T12:11:14;4.67;;;2.23;;
8317;SDS011;4196;48.926;8.964;2024-03-23T12:14:01;3.47;;;1.80;;
8317;SDS011;4196;48.926;8.964;2024-03-23T12:16:46;7.80;;;2.10;;
8317;SDS011;4196;48.926;8.964;2024-03-23T12:19:32;2.97;;;2.20;;
8317;SDS011;4196;48.926;8.964;2024-03-23T12:22:20;5.47;;;2.47;;
8317;SDS011;4196;48.926;8.964;2024-03-23T12:25:05;2.37;;;1.70;;
8317;SDS011;4196;48.926;8.964;2024-03-23T12:27:52;4.03;;;1.90;;
8317;SDS011;4196;48.926;8.964;2024-03-23T12:30:40;3.43;;;2.40;;
8317;SDS011;4196;48.926;8.964;2024-03-23T12:33:25;4.20;;;1.80;;
8317;SDS011;4196;48.926;8.964;2024-03-23T12:36:10;7.73;;;3.17;;
8317;SDS011;4196;48.926;8.964;2024-03-23T12:38:56;5.70;;;1.90;;
8317;SDS011;4196;48.926;8.964;2024-03-23T12:41:41;6.20;;;2.60;;
8317;SDS011;4196;48.926;8.964;2024-03-23T12:44:26;5.70;;;2.47;;
8317;SDS011;4196;48.926;8.964;2024-03-23T12:47:12;4.13;;;1.83;;
8317;SDS011;4196;48.926;8.964;2024-03-23T12:49:57;4.33;;;2.93;;
8317;SDS011;4196;48.926;8.964;2024-03-23T12:52:43;2.70;;;1.40;;
8317;SDS011;4196;48.926;8.964;2024-03-23T12:55:28;4.30;;;1.60;;
8317;SDS011;4196;48.926;8.964;2024-03-23T12:58:13;2.87;;;1.60;;
8317;SDS011;4196;48.926;8.964;2024-03-23T13:00:59;3.03;;;1.67;;
8317;SDS011;4196;48.926;8.964;2024-03-23T13:03:47;6.23;;;2.53;;
8317;SDS011;4196;48.926;8.964;2024-03-23T13:06:34;5.23;;;2.03;;
8317;SDS011;4196;48.926;8.964;2024-03-23T13:09:20;2.83;;;1.60;;
8317;SDS011;4196;48.926;8.964;2024-03-23T13:12:05;4.13;;;1.80;;
8317;SDS011;4196;48.926;8.964;2024-03-23T13:14:51;6.07;;;1.90;;
8317;SDS011;4196;48.926;8.964;2024-03-23T13:17:36;5.03;;;2.50;;
8317;SDS011;4196;48.926;8.964;2024-03-23T13:20:21;3.67;;;1.70;;
8317;SDS011;4196;48.926;8.964;2024-03-23T13:23:06;3.43;;;1.60;;
8317;SDS011;4196;48.926;8.964;2024-03-23T13:25:52;3.87;;;1.50;;
8317;SDS011;4196;48.926;8.964;2024-03-23T13:28:39;3.03;;;1.40;;
8317;SDS011;4196;48.926;8.964;2024-03-23T13:31:25;2.83;;;1.63;;
8317;SDS011;4196;48.926;8.964;2024-03-23T13:34:10;4.60;;;1.60;;
8317;SDS011;4196;48.926;8.964;2024-03-23T13:36:55;3.40;;;1.80;;
8317;SDS011;4196;48.926;8.964;2024-03-23T13:39:43;4.80;;;1.60;;
8317;SDS011;4196;48.926;8.964;2024-03-23T13:42:28;3.70;;;1.37;;
8317;SDS011;4196;48.926;8.964;2024-03-23T13:45:13;2.37;;;1.23;;
8317;SDS011;4196;48.926;8.964;2024-03-23T13:48:02;2.53;;;1.17;;
8317;SDS011;4196;48.926;8.964;2024-03-23T13:51:02;1.60;;;0.97;;
8317;SDS011;4196;48.926;8.964;2024-03-23T13:53:48;1.20;;;0.87;;
8317;SDS011;4196;48.926;8.964;2024-03-23T13:56:34;3.63;;;1.50;;
8317;SDS011;4196;48.926;8.964;2024-03-23T13:59:19;3.63;;;1.57;;
8317;SDS011;4196;48.926;8.964;2024-03-23T14:02:05;3.07;;;1.33;;
8317;SDS011;4196;48.926;8.964;2024-03-23T14:04:50;4.47;;;1.23;;
8317;SDS011;4196;48.926;8.964;2024-03-23T14:07:36;3.33;;;1.33;;
8317;SDS011;4196;48.926;8.964;2024-03-23T14:10:22;1.63;;;1.20;;
8317;SDS011;4196;48.926;8.964;2024-03-23T14:13:07;2.70;;;1.50;;
8317;SDS011;4196;48.926;8.964;2024-03-23T14:15:53;3.00;;;1.00;;
8317;SDS011;4196;48.926;8.964;2024-03-23T14:18:39;2.47;;;1.33;;
8317;SDS011;4196;48.926;8.964;2024-03-23T14:21:24;5.23;;;2.97;;
8317;SDS011;4196;48.926;8.964;2024-03-23T14:24:10;3.23;;;1.20;;
8317;SDS011;4196;48.926;8.964;2024-03-23T14:26:55;1.47;;;1.00;;
8317;SDS011;4196;48.926;8.964;2024-03-23T14:29:41;2.53;;;1.47;;
8317;SDS011;4196;48.926;8.964;2024-03-23T14:32:26;3.53;;;1.73;;
8317;SDS011;4196;48.926;8.964;2024-03-23T14:35:12;15.43;;;6.00;;
8317;SDS011;4196;48.926;8.964;2024-03-23T14:37:57;5.10;;;2.57;;
8317;SDS011;4196;48.926;8.964;2024-03-23T14:40:42;4.13;;;2.57;;
8317;SDS011;4196;48.926;8.964;2024-03-23T14:43:28;2.90;;;1.80;;
8317;SDS011;4196;48.926;8.964;2024-03-23T14:46:15;8.60;;;4.03;;
8317;SDS011;4196;48.926;8.964;2024-03-23T14:49:01;2.67;;;1.80;;
8317;SDS011;4196;48.926;8.964;2024-03-23T14:51:46;3.00;;;2.10;;
8317;SDS011;4196;48.926;8.964;2024-03-23T14:54:32;1.73;;;1.40;;
8317;SDS011;4196;48.926;8.964;2024-03-23T14:57:17;1.00;;;0.90;;
8317;SDS011;4196;48.926;8.964;2024-03-23T15:00:06;1.57;;;1.23;;
8317;SDS011;4196;48.926;8.964;2024-03-23T15:02:52;2.70;;;2.27;;
8317;SDS011;4196;48.926;8.964;2024-03-23T15:05:38;2.20;;;1.13;;
8317;SDS011;4196;48.926;8.964;2024-03-23T15:08:23;1.53;;;1.43;;
8317;SDS011;4196;48.926;8.964;2024-03-23T15:11:09;1.53;;;1.07;;
8317;SDS011;4196;48.926;8.964;2024-03-23T15:13:54;0.93;;;0.83;;
8317;SDS011;4196;48.926;8.964;2024-03-23T15:16:40;1.33;;;0.90;;
8317;SDS011;4196;48.926;8.964;2024-03-23T15:19:27;1.00;;;0.70;;
8317;SDS011;4196;48.926;8.964;2024-03-23T15:22:12;1.27;;;0.87;;
8317;SDS011;4196;48.926;8.964;2024-03-23T15:24:57;1.10;;;1.00;;
8317;SDS011;4196;48.926;8.964;2024-03-23T15:27:43;0.67;;;0.67;;
8317;SDS011;4196;48.926;8.964;2024-03-23T15:30:28;1.37;;;0.70;;
8317;SDS011;4196;48.926;8.964;2024-03-23T15:33:13;1.23;;;0.80;;
8317;SDS011;4196;48.926;8.964;2024-03-23T15:35:59;4.57;;;1.00;;
8317;SDS011;4196;48.926;8.964;2024-03-23T15:38:44;0.90;;;0.80;;
8317;SDS011;4196;48.926;8.964;2024-03-23T15:41:30;3.30;;;1.60;;
8317;SDS011;4196;48.926;8.964;2024-03-23T15:44:16;1.63;;;1.00;;
8317;SDS011;4196;48.926;8.964;2024-03-23T15:47:01;3.33;;;1.63;;
8317;SDS011;4196;48.926;8.964;2024-03-23T15:49:47;1.90;;;1.20;;
8317;SDS011;4196;48.926;8.964;2024-03-23T15:52:32;5.00;;;1.67;;
8317;SDS011;4196;48.926;8.964;2024-03-23T15:55:18;3.03;;;1.77;;
8317;SDS011;4196;48.926;8.964;2024-03-23T15:58:03;2.77;;;2.10;;
8317;SDS011;4196;48.926;8.964;2024-03-23T16:03:51;6.60;;;2.17;;
8317;SDS011;4196;48.926;8.964;2024-03-23T16:06:37;1.67;;;1.10;;
8317;SDS011;4196;48.926;8.964;2024-03-23T16:09:22;1.40;;;1.03;;
8317;SDS011;4196;48.926;8.964;2024-03-23T16:12:08;5.27;;;2.30;;
8317;SDS011;4196;48.926;8.964;2024-03-23T16:14:53;3.50;;;1.67;;
8317;SDS011;4196;48.926;8.964;2024-03-23T16:17:39;3.53;;;1.63;;
8317;SDS011;4196;48.926;8.964;2024-03-23T16:20:25;3.60;;;1.93;;
8317;SDS011;4196;48.926;8.964;2024-03-23T16:23:11;2.63;;;1.80;;
8317;SDS011;4196;48.926;8.964;2024-03-23T16:25:56;1.70;;;1.20;;
8317;SDS011;4196;48.926;8.964;2024-03-23T16:28:41;4.57;;;1.90;;
8317;SDS011;4196;48.926;8.964;2024-03-23T16:31:27;3.20;;;2.27;;
8317;SDS011;4196;48.926;8.964;2024-03-23T16:34:12;0.97;;;0.83;;
8317;SDS011;4196;48.926;8.964;2024-03-23T16:36:58;2.83;;;1.53;;
8317;SDS011;4196;48.926;8.964;2024-03-23T16:39:43;2.93;;;1.00;;
8317;SDS011;4196;48.926;8.964;2024-03-23T16:42:29;2.83;;;1.20;;
8317;SDS011;4196;48.926;8.964;2024-03-23T16:45:15;2.03;;;1.73;;
8317;SDS011;4196;48.926;8.964;2024-03-23T16:48:00;1.17;;;0.97;;
8317;SDS011;4196;48.926;8.964;2024-03-23T16:50:47;1.63;;;1.33;;
8317;SDS011;4196;48.926;8.964;2024-03-23T16:53:32;1.87;;;1.37;;
8317;SDS011;4196;48.926;8.964;2024-03-23T16:56:18;1.50;;;1.30;;
8317;SDS011;4196;48.926;8.964;2024-03-23T16:59:04;0.70;;;0.70;;
8317;SDS011;4196;48.926;8.964;2024-03-23T17:01:50;1.40;;;1.30;;
8317;SDS011;4196;48.926;8.964;2024-03-23T17:04:35;0.90;;;0.87;;
8317;SDS011;4196;48.926;8.964;2024-03-23T17:07:22;1.10;;;1.00;;
8317;SDS011;4196;48.926;8.964;2024-03-23T17:10:07;1.10;;;1.10;;
8317;SDS011;4196;48.926;8.964;2024-03-23T17:12:53;3.30;;;1.40;;
8317;SDS011;4196;48.926;8.964;2024-03-23T17:15:42;1.50;;;1.40;;
8317;SDS011;4196;48.926;8.964;2024-03-23T17:18:28;1.60;;;1.50;;
8317;SDS011;4196;48.926;8.964;2024-03-23T17:21:13;1.93;;;1.10;;
8317;SDS011;4196;48.926;8.964;2024-03-23T17:23:59;1.07;;;0.83;;
8317;SDS011;4196;48.926;8.964;2024-03-23T17:26:44;2.33;;;1.30;;
8317;SDS011;4196;48.926;8.964;2024-03-23T17:29:29;1.23;;;1.13;;
8317;SDS011;4196;48.926;8.964;2024-03-23T17:32:14;1.20;;;1.10;;
8317;SDS011;4196;48.926;8.964;2024-03-23T17:35:00;5.33;;;3.10;;
8317;SDS011;4196;48.926;8.964;2024-03-23T17:37:45;1.73;;;1.37;;
8317;SDS011;4196;48.926;8.964;2024-03-23T17:40:31;2.03;;;1.37;;
8317;SDS011;4196;48.926;8.964;2024-03-23T17:43:17;3.50;;;1.43;;
8317;SDS011;4196;48.926;8.964;2024-03-23T17:46:02;0.53;;;0.53;;
8317;SDS011;4196;48.926;8.964;2024-03-23T17:48:48;0.80;;;0.80;;
8317;SDS011;4196;48.926;8.964;2024-03-23T17:51:33;2.70;;;0.70;;
8317;SDS011;4196;48.926;8.964;2024-03-23T17:54:19;0.87;;;0.83;;
8317;SDS011;4196;48.926;8.964;2024-03-23T17:57:05;1.37;;;0.80;;
8317;SDS011;4196;48.926;8.964;2024-03-23T17:59:51;1.27;;;1.17;;
8317;SDS011;4196;48.926;8.964;2024-03-23T18:02:37;1.33;;;1.10;;
8317;SDS011;4196;48.926;8.964;2024-03-23T18:05:23;3.67;;;1.50;;
8317;SDS011;4196;48.926;8.964;2024-03-23T18:08:08;1.77;;;1.30;;
8317;SDS011;4196;48.926;8.964;2024-03-23T18:10:54;1.33;;;1.07;;
8317;SDS011;4196;48.926;8.964;2024-03-23T18:13:39;6.80;;;2.90;;